createdAt,value
2018-11-29T00:00:45.025Z,24.77
2018-11-29T00:02:57.269Z,24.20
2018-11-29T00:05:09.486Z,21.87
2018-11-29T00:07:21.701Z,23.60
2018-11-29T00:09:37.849Z,23.53
2018-11-29T00:11:50.012Z,22.23
2018-11-29T00:14:02.377Z,25.33
2018-11-29T00:16:14.603Z,22.80
2018-11-29T00:18:26.798Z,23.77
2018-11-29T00:20:38.962Z,22.53
2018-11-29T00:22:51.311Z,22.87
2018-11-29T00:25:03.899Z,23.70
2018-11-29T00:27:16.156Z,22.13
2018-11-29T00:29:28.364Z,22.80
2018-11-29T00:31:40.551Z,23.47
2018-11-29T00:33:52.710Z,27.07
2018-11-29T00:36:04.996Z,24.13
2018-11-29T00:38:17.159Z,24.17
2018-11-29T00:40:29.359Z,23.33
2018-11-29T00:42:41.561Z,22.77
2018-11-29T00:44:53.752Z,23.43
2018-11-29T00:47:05.958Z,22.43
2018-11-29T00:49:18.147Z,21.70
2018-11-29T00:51:30.396Z,25.43
2018-11-29T00:53:42.565Z,24.37
2018-11-29T00:55:54.759Z,22.23
2018-11-29T00:58:06.932Z,23.60
2018-11-29T01:00:21.030Z,22.00
2018-11-29T01:02:33.218Z,22.87
2018-11-29T01:04:45.401Z,23.23
2018-11-29T01:06:57.600Z,23.70
2018-11-29T01:09:09.844Z,23.57
2018-11-29T01:11:22.109Z,22.70
2018-11-29T01:13:34.320Z,26.70
2018-11-29T01:15:46.517Z,24.50
2018-11-29T01:17:58.714Z,23.77
2018-11-29T01:20:12.962Z,21.37
2018-11-29T01:22:25.185Z,26.37
2018-11-29T01:24:37.398Z,22.47
2018-11-29T01:26:49.594Z,25.57
2018-11-29T01:29:01.849Z,24.80
2018-11-29T01:31:14.039Z,26.23
2018-11-29T01:33:26.213Z,24.00
2018-11-29T01:35:38.396Z,22.57
2018-11-29T01:37:50.626Z,23.23
2018-11-29T01:40:02.898Z,24.73
2018-11-29T01:42:15.077Z,22.13
2018-11-29T01:44:27.274Z,22.90
2018-11-29T01:46:39.479Z,23.67
2018-11-29T01:48:51.693Z,22.53
2018-11-29T01:51:04.116Z,24.83
2018-11-29T01:53:16.312Z,22.43
2018-11-29T01:55:28.506Z,21.70
2018-11-29T01:57:40.763Z,23.70
2018-11-29T01:59:52.995Z,20.63
2018-11-29T02:02:05.481Z,22.70
2018-11-29T02:04:17.721Z,22.80
2018-11-29T02:06:29.930Z,25.40
2018-11-29T02:08:42.122Z,25.57
2018-11-29T02:10:54.421Z,20.80
2018-11-29T02:13:06.738Z,24.23
2018-11-29T02:15:18.929Z,23.40
2018-11-29T02:17:31.152Z,25.10
2018-11-29T02:19:43.308Z,27.33
2018-11-29T02:21:55.509Z,23.57
2018-11-29T02:24:07.674Z,23.97
2018-11-29T02:26:19.932Z,21.03
2018-11-29T02:28:32.196Z,23.67
2018-11-29T02:30:44.364Z,23.33
2018-11-29T02:32:56.540Z,24.63
2018-11-29T02:35:08.729Z,23.17
2018-11-29T02:37:20.890Z,23.60
2018-11-29T02:39:33.193Z,22.33
2018-11-29T02:41:45.387Z,24.33
2018-11-29T02:43:57.562Z,24.07
2018-11-29T02:46:09.761Z,24.97
2018-11-29T02:48:21.923Z,23.13
2018-11-29T02:50:34.097Z,23.00
2018-11-29T02:52:46.279Z,25.93
2018-11-29T02:54:58.444Z,24.87
2018-11-29T02:57:10.630Z,26.53
2018-11-29T02:59:22.780Z,24.10
2018-11-29T03:01:35.008Z,24.13
2018-11-29T03:03:47.208Z,23.27
2018-11-29T03:05:59.441Z,24.90
2018-11-29T03:08:11.618Z,25.67
2018-11-29T03:10:25.546Z,23.07
2018-11-29T03:12:37.772Z,24.53
2018-11-29T03:14:49.965Z,24.50
2018-11-29T03:17:02.194Z,23.47
2018-11-29T03:19:14.362Z,21.73
2018-11-29T03:21:26.532Z,24.23
2018-11-29T03:23:38.701Z,26.07
2018-11-29T03:25:50.900Z,25.10
2018-11-29T03:28:03.115Z,27.43
2018-11-29T03:30:16.444Z,23.90
2018-11-29T03:32:28.627Z,22.40
2018-11-29T03:34:40.796Z,23.93
2018-11-29T03:36:52.995Z,22.83
2018-11-29T03:39:06.561Z,23.17
2018-11-29T03:41:18.736Z,22.33
2018-11-29T03:43:30.936Z,24.13
2018-11-29T03:45:43.220Z,18.53
2018-11-29T03:47:55.453Z,24.33
2018-11-29T03:50:10.229Z,23.70
2018-11-29T03:52:22.437Z,22.27
2018-11-29T03:54:34.633Z,22.23
2018-11-29T03:56:46.789Z,23.63
2018-11-29T03:58:58.937Z,22.93
2018-11-29T04:01:11.106Z,23.27
2018-11-29T04:03:23.307Z,20.70
2018-11-29T04:05:35.495Z,23.37
2018-11-29T04:07:47.684Z,20.43
2018-11-29T04:09:59.876Z,23.50
2018-11-29T04:12:12.040Z,24.10
2018-11-29T04:14:24.253Z,21.30
2018-11-29T04:16:36.438Z,23.33
2018-11-29T04:18:49.146Z,18.87
2018-11-29T04:21:00.821Z,22.97
2018-11-29T04:23:12.994Z,22.57
2018-11-29T04:25:25.193Z,20.97
2018-11-29T04:27:37.378Z,18.83
2018-11-29T04:29:49.540Z,23.03
2018-11-29T04:32:01.733Z,22.27
2018-11-29T04:34:13.933Z,19.00
2018-11-29T04:36:26.149Z,23.37
2018-11-29T04:38:38.601Z,20.00
2018-11-29T04:40:50.845Z,20.53
2018-11-29T04:43:03.041Z,21.30
2018-11-29T04:45:16.279Z,20.63
2018-11-29T04:47:28.465Z,22.43
2018-11-29T04:49:40.643Z,21.37
2018-11-29T04:51:52.842Z,21.17
2018-11-29T04:54:05.936Z,17.17
2018-11-29T04:56:18.088Z,18.40
2018-11-29T04:58:30.297Z,21.63
2018-11-29T05:00:42.516Z,20.27
2018-11-29T05:02:54.726Z,20.77
2018-11-29T05:05:07.582Z,19.43
2018-11-29T05:07:19.763Z,18.00
2018-11-29T05:09:31.988Z,21.77
2018-11-29T05:11:44.162Z,20.57
2018-11-29T05:13:56.356Z,21.33
2018-11-29T05:16:08.591Z,20.40
2018-11-29T05:18:20.777Z,19.60
2018-11-29T05:20:32.946Z,21.97
2018-11-29T05:22:45.150Z,19.47
2018-11-29T05:24:57.390Z,19.03
2018-11-29T05:27:09.671Z,19.60
2018-11-29T05:29:21.863Z,21.17
2018-11-29T05:31:34.062Z,19.87
2018-11-29T05:33:46.265Z,20.70
2018-11-29T05:35:58.488Z,20.83
2018-11-29T05:38:10.633Z,19.73
2018-11-29T05:40:22.828Z,20.63
2018-11-29T05:42:35.019Z,18.13
2018-11-29T05:44:47.256Z,22.37
2018-11-29T05:46:59.472Z,22.03
2018-11-29T05:49:11.645Z,19.73
2018-11-29T05:51:23.892Z,17.33
2018-11-29T05:53:36.129Z,20.00
2018-11-29T05:55:48.356Z,19.57
2018-11-29T05:58:00.560Z,17.93
2018-11-29T06:00:13.664Z,15.17
2018-11-29T06:02:25.835Z,18.60
2018-11-29T06:04:38.033Z,20.13
2018-11-29T06:06:50.220Z,20.00
2018-11-29T06:09:02.625Z,18.10
2018-11-29T06:11:14.836Z,21.53
2018-11-29T06:13:27.065Z,22.27
2018-11-29T06:15:39.244Z,19.93
2018-11-29T06:17:51.433Z,18.87
2018-11-29T06:20:03.985Z,19.87
2018-11-29T06:22:16.171Z,18.87
2018-11-29T06:24:28.331Z,20.00
2018-11-29T06:26:40.493Z,20.10
2018-11-29T06:28:52.769Z,19.17
2018-11-29T06:31:05.380Z,21.40
2018-11-29T06:33:17.560Z,18.70
2018-11-29T06:35:29.729Z,21.67
2018-11-29T06:37:41.933Z,17.67
2018-11-29T06:39:54.147Z,19.77
2018-11-29T06:42:10.223Z,17.67
2018-11-29T06:44:22.510Z,22.37
2018-11-29T06:46:34.760Z,18.00
2018-11-29T06:48:46.920Z,18.73
2018-11-29T06:51:00.478Z,19.77
2018-11-29T06:53:18.512Z,19.73
2018-11-29T06:55:30.739Z,20.57
2018-11-29T06:57:42.966Z,19.97
2018-11-29T06:59:55.126Z,19.30
2018-11-29T07:02:07.430Z,20.17
2018-11-29T07:04:19.729Z,19.10
2018-11-29T07:06:31.962Z,19.00
2018-11-29T07:08:44.174Z,17.67
2018-11-29T07:10:56.353Z,17.13
2018-11-29T07:13:08.533Z,20.57
2018-11-29T07:15:20.804Z,20.23
2018-11-29T07:17:33.005Z,20.90
2018-11-29T07:19:45.208Z,19.97
2018-11-29T07:21:57.422Z,17.07
2018-11-29T07:24:09.689Z,17.10
2018-11-29T07:26:21.857Z,18.40
2018-11-29T07:28:34.116Z,17.97
2018-11-29T07:30:46.312Z,19.63
2018-11-29T07:32:58.532Z,16.50
2018-11-29T07:35:11.869Z,18.47
2018-11-29T07:37:24.084Z,16.10
2018-11-29T07:39:36.309Z,15.10
2018-11-29T07:41:48.644Z,16.77
2018-11-29T07:44:00.824Z,16.47
2018-11-29T07:46:13.021Z,19.20
2018-11-29T07:48:25.180Z,15.27
2018-11-29T07:50:37.367Z,15.37
2018-11-29T07:52:49.593Z,18.63
2018-11-29T07:55:01.765Z,18.47
2018-11-29T07:57:13.969Z,15.77
2018-11-29T07:59:26.136Z,15.97
2018-11-29T08:01:38.329Z,16.13
2018-11-29T08:03:50.615Z,15.03
2018-11-29T08:06:02.798Z,16.60
2018-11-29T08:08:14.981Z,14.33
2018-11-29T08:10:27.137Z,16.07
2018-11-29T08:12:39.384Z,16.97
2018-11-29T08:14:51.610Z,15.53
2018-11-29T08:17:03.817Z,13.53
2018-11-29T08:19:16.011Z,14.13
2018-11-29T08:21:28.225Z,13.93
2018-11-29T08:23:40.461Z,13.67
2018-11-29T08:25:52.657Z,12.87
2018-11-29T08:28:04.854Z,13.43
2018-11-29T08:30:17.048Z,14.47
2018-11-29T08:32:29.282Z,13.23
2018-11-29T08:34:41.432Z,13.03
2018-11-29T08:36:53.648Z,12.80
2018-11-29T08:39:08.374Z,12.93
2018-11-29T08:41:20.537Z,14.37
2018-11-29T08:43:32.776Z,12.93
2018-11-29T08:45:44.945Z,12.23
2018-11-29T08:47:57.135Z,12.37
2018-11-29T08:50:12.285Z,12.47
2018-11-29T08:52:24.545Z,10.97
2018-11-29T08:54:36.735Z,11.67
2018-11-29T08:56:48.897Z,12.47
2018-11-29T08:59:01.063Z,10.93
2018-11-29T09:01:13.225Z,11.30
2018-11-29T09:03:25.410Z,11.03
2018-11-29T09:05:37.609Z,11.00
2018-11-29T09:07:49.838Z,10.83
2018-11-29T09:10:02.044Z,10.60
2018-11-29T09:12:14.231Z,12.47
2018-11-29T09:14:26.406Z,12.00
2018-11-29T09:16:38.625Z,9.50
2018-11-29T09:18:50.808Z,9.27
2018-11-29T09:21:03.041Z,10.00
2018-11-29T09:23:15.204Z,9.63
2018-11-29T09:25:27.453Z,9.47
2018-11-29T09:27:39.638Z,10.50
2018-11-29T09:29:51.821Z,10.33
2018-11-29T09:32:05.697Z,9.53
2018-11-29T09:34:17.808Z,9.77
2018-11-29T09:36:30.021Z,9.40
2018-11-29T09:38:42.190Z,9.77
2018-11-29T09:40:54.423Z,7.97
2018-11-29T09:43:06.597Z,10.17
2018-11-29T09:45:19.773Z,10.43
2018-11-29T09:47:31.965Z,10.13
2018-11-29T09:49:44.153Z,7.73
2018-11-29T09:51:56.362Z,9.40
2018-11-29T09:54:08.635Z,8.00
2018-11-29T09:56:20.809Z,8.83
2018-11-29T09:58:33.032Z,7.20
2018-11-29T10:00:45.229Z,7.37
2018-11-29T10:03:06.901Z,7.27
2018-11-29T10:05:19.087Z,8.63
2018-11-29T10:07:31.291Z,7.60
2018-11-29T10:09:43.526Z,6.30
2018-11-29T10:11:55.760Z,7.57
2018-11-29T10:14:07.967Z,9.10
2018-11-29T10:16:20.137Z,5.77
2018-11-29T10:18:32.347Z,6.60
2018-11-29T10:20:44.573Z,6.10
2018-11-29T10:22:56.749Z,7.37
2018-11-29T10:25:10.337Z,7.03
2018-11-29T10:27:22.548Z,6.70
2018-11-29T10:29:34.758Z,6.87
2018-11-29T10:31:46.904Z,6.63
2018-11-29T10:33:59.111Z,7.27
2018-11-29T10:36:11.280Z,7.00
2018-11-29T10:38:23.494Z,8.20
2018-11-29T10:40:35.682Z,7.73
2018-11-29T10:42:47.873Z,7.33
2018-11-29T10:45:00.066Z,7.80
2018-11-29T10:47:12.278Z,8.60
2018-11-29T10:49:24.453Z,7.90
2018-11-29T10:51:36.632Z,6.33
2018-11-29T10:53:48.880Z,6.93
2018-11-29T10:56:01.248Z,7.37
2018-11-29T10:58:13.474Z,6.73
2018-11-29T11:00:31.390Z,6.77
2018-11-29T11:02:49.172Z,8.23
2018-11-29T11:05:01.352Z,7.13
2018-11-29T11:07:13.577Z,8.50
2018-11-29T11:09:25.742Z,8.67
2018-11-29T11:11:37.920Z,8.20
2018-11-29T11:13:50.162Z,7.33
2018-11-29T11:16:02.365Z,9.40
2018-11-29T11:18:15.397Z,6.70
2018-11-29T11:20:27.578Z,7.83
2018-11-29T11:22:39.819Z,7.20
2018-11-29T11:24:52.021Z,7.37
2018-11-29T11:27:04.248Z,7.00
2018-11-29T11:29:16.397Z,10.13
2018-11-29T11:31:31.179Z,8.60
2018-11-29T11:33:40.833Z,7.60
2018-11-29T11:35:52.997Z,6.87
2018-11-29T11:38:05.315Z,7.13
2018-11-29T11:40:17.570Z,7.17
2018-11-29T11:42:29.744Z,8.23
2018-11-29T11:44:41.932Z,6.67
2018-11-29T11:46:54.136Z,9.00
2018-11-29T11:49:06.303Z,6.37
2018-11-29T11:51:18.483Z,7.53
2018-11-29T11:53:30.663Z,7.43
2018-11-29T11:55:42.862Z,7.20
2018-11-29T11:57:55.037Z,7.67
2018-11-29T12:00:12.321Z,6.37
2018-11-29T12:02:27.309Z,6.10
2018-11-29T12:04:36.738Z,7.10
2018-11-29T12:06:48.915Z,6.23
2018-11-29T12:09:01.117Z,8.63
2018-11-29T12:11:13.384Z,8.13
2018-11-29T12:13:25.903Z,7.87
2018-11-29T12:15:38.172Z,7.00
2018-11-29T12:17:50.361Z,7.80
2018-11-29T12:20:02.604Z,7.87
2018-11-29T12:22:14.795Z,8.27
2018-11-29T12:24:27.044Z,7.23
2018-11-29T12:26:39.259Z,8.40
2018-11-29T12:28:51.433Z,6.80
2018-11-29T12:31:03.628Z,7.93
2018-11-29T12:33:16.785Z,7.47
2018-11-29T12:35:29.005Z,7.57
2018-11-29T12:37:41.176Z,6.73
2018-11-29T12:39:53.342Z,8.57
2018-11-29T12:42:05.554Z,7.73
2018-11-29T12:44:17.768Z,11.10
2018-11-29T12:46:29.980Z,8.60
2018-11-29T12:48:42.157Z,7.43
2018-11-29T12:50:54.392Z,7.13
2018-11-29T12:53:07.129Z,6.87
2018-11-29T12:55:20.434Z,7.30
2018-11-29T12:57:32.644Z,7.30
2018-11-29T12:59:44.837Z,7.97
2018-11-29T13:01:57.048Z,8.60
2018-11-29T13:04:09.248Z,5.97
2018-11-29T13:06:21.489Z,7.33
2018-11-29T13:08:33.708Z,6.73
2018-11-29T13:10:45.883Z,8.80
2018-11-29T13:12:58.102Z,8.00
2018-11-29T13:15:11.854Z,5.40
2018-11-29T13:17:24.005Z,7.70
2018-11-29T13:19:37.085Z,8.30
2018-11-29T13:21:49.321Z,8.07
2018-11-29T13:24:01.588Z,7.60
2018-11-29T13:26:13.786Z,6.97
2018-11-29T13:28:26.037Z,7.10
2018-11-29T13:30:38.242Z,7.57
2018-11-29T13:32:52.784Z,8.23
2018-11-29T13:35:12.136Z,7.73
2018-11-29T13:37:25.305Z,8.20
2018-11-29T13:39:37.463Z,6.60
2018-11-29T13:41:49.658Z,6.60
2018-11-29T13:44:01.854Z,7.37
2018-11-29T13:46:14.088Z,6.73
2018-11-29T13:48:26.297Z,7.40
2018-11-29T13:50:39.364Z,7.47
2018-11-29T13:52:51.472Z,7.53
2018-11-29T13:55:04.489Z,9.20
2018-11-29T13:57:16.678Z,9.27
2018-11-29T13:59:28.880Z,8.33
2018-11-29T14:01:41.057Z,7.47
2018-11-29T14:03:53.217Z,7.13
2018-11-29T14:06:05.924Z,8.27
2018-11-29T14:08:18.105Z,7.30
2018-11-29T14:10:30.381Z,9.23
2018-11-29T14:12:43.152Z,8.93
2018-11-29T14:14:55.408Z,9.37
2018-11-29T14:17:07.584Z,8.57
2018-11-29T14:19:20.092Z,9.03
2018-11-29T14:21:32.285Z,8.57
2018-11-29T14:23:44.492Z,7.97
2018-11-29T14:25:56.694Z,9.30
2018-11-29T14:28:09.313Z,9.40
2018-11-29T14:30:24.655Z,9.07
2018-11-29T14:32:36.851Z,8.43
2018-11-29T14:34:51.698Z,9.20
2018-11-29T14:37:01.210Z,11.80
2018-11-29T14:39:13.401Z,9.80
2018-11-29T14:41:25.664Z,10.23
2018-11-29T14:43:37.920Z,9.10
2018-11-29T14:45:50.129Z,9.57
2018-11-29T14:48:02.318Z,10.83
2018-11-29T14:50:16.381Z,11.77
2018-11-29T14:52:28.578Z,10.50
2018-11-29T14:54:40.824Z,11.13
2018-11-29T14:56:53.068Z,11.10
2018-11-29T14:59:05.374Z,9.57
2018-11-29T15:01:20.243Z,9.20
2018-11-29T15:03:32.459Z,10.97
2018-11-29T15:05:45.181Z,9.77
2018-11-29T15:07:57.459Z,9.30
2018-11-29T15:10:09.881Z,10.50
2018-11-29T15:12:22.104Z,10.93
2018-11-29T15:14:34.270Z,9.87
2018-11-29T15:16:46.496Z,10.37
2018-11-29T15:18:58.726Z,10.43
2018-11-29T15:21:10.963Z,10.33
2018-11-29T15:23:23.198Z,10.47
2018-11-29T15:25:35.404Z,10.67
2018-11-29T15:27:47.656Z,11.27
2018-11-29T15:29:59.840Z,12.13
2018-11-29T15:32:12.041Z,8.83
2018-11-29T15:34:24.277Z,10.30
2018-11-29T15:36:36.521Z,10.33
2018-11-29T15:38:48.718Z,10.97
2018-11-29T15:41:00.915Z,9.87
2018-11-29T15:43:13.134Z,13.00
2018-11-29T15:45:26.131Z,12.57
2018-11-29T15:47:38.353Z,10.13
2018-11-29T15:49:50.588Z,10.60
2018-11-29T15:52:02.909Z,13.07
2018-11-29T15:54:15.145Z,12.53
2018-11-29T15:56:27.408Z,11.67
2018-11-29T15:58:39.705Z,11.17
2018-11-29T16:00:51.901Z,10.27
2018-11-29T16:03:06.501Z,11.37
2018-11-29T16:05:18.769Z,11.40
2018-11-29T16:07:30.944Z,11.23
2018-11-29T16:09:43.132Z,9.43
2018-11-29T16:11:56.969Z,11.47
2018-11-29T16:14:09.178Z,11.17
2018-11-29T16:16:21.393Z,9.27
2018-11-29T16:18:33.600Z,12.90
2018-11-29T16:20:45.902Z,11.83
2018-11-29T16:22:58.204Z,11.23
2018-11-29T16:25:10.945Z,11.50
2018-11-29T16:27:23.195Z,10.70
2018-11-29T16:29:35.504Z,10.90
2018-11-29T16:31:47.757Z,9.33
2018-11-29T16:34:00.026Z,10.90
2018-11-29T16:36:12.270Z,9.87
2018-11-29T16:38:24.520Z,12.03
2018-11-29T16:40:36.764Z,10.57
2018-11-29T16:42:49.026Z,10.83
2018-11-29T16:45:01.334Z,11.03
2018-11-29T16:47:13.605Z,10.43
2018-11-29T16:49:25.885Z,10.73
2018-11-29T16:51:38.094Z,11.57
2018-11-29T16:53:50.286Z,11.57
2018-11-29T16:56:02.546Z,12.90
2018-11-29T16:58:16.863Z,11.33
2018-11-29T17:00:29.148Z,13.13
2018-11-29T17:02:41.457Z,14.10
2018-11-29T17:04:53.716Z,14.60
2018-11-29T17:07:06.261Z,12.57
2018-11-29T17:09:18.502Z,12.33
2018-11-29T17:11:30.720Z,13.40
2018-11-29T17:13:42.945Z,12.70
2018-11-29T17:15:55.170Z,15.40
2018-11-29T17:18:07.396Z,12.57
2018-11-29T17:20:20.052Z,14.00
2018-11-29T17:22:32.279Z,14.63
2018-11-29T17:24:44.445Z,13.10
2018-11-29T17:26:56.621Z,13.93
2018-11-29T17:29:08.834Z,12.87
2018-11-29T17:31:21.044Z,14.40
2018-11-29T17:33:33.253Z,14.57
2018-11-29T17:35:45.480Z,15.33
2018-11-29T17:37:58.714Z,16.53
2018-11-29T17:40:15.114Z,11.93
2018-11-29T17:42:27.304Z,13.27
2018-11-29T17:44:39.529Z,14.03
2018-11-29T17:46:51.851Z,16.70
2018-11-29T17:49:04.332Z,15.20
2018-11-29T17:51:16.609Z,17.67
2018-11-29T17:53:28.856Z,15.50
2018-11-29T17:55:41.209Z,17.23
2018-11-29T17:57:53.414Z,14.97
2018-11-29T18:00:10.905Z,13.03
2018-11-29T18:02:23.134Z,16.27
2018-11-29T18:04:35.378Z,14.97
2018-11-29T18:06:47.694Z,16.60
2018-11-29T18:08:59.963Z,16.97
2018-11-29T18:11:12.220Z,18.03
2018-11-29T18:13:26.631Z,19.17
2018-11-29T18:15:38.842Z,17.33
2018-11-29T18:17:51.117Z,16.63
2018-11-29T18:20:04.326Z,16.70
2018-11-29T18:22:16.540Z,16.70
2018-11-29T18:24:28.769Z,17.60
2018-11-29T18:26:41.046Z,19.27
2018-11-29T18:28:53.310Z,17.23
2018-11-29T18:31:05.578Z,16.70
2018-11-29T18:33:17.837Z,18.93
2018-11-29T18:35:30.098Z,19.23
2018-11-29T18:37:42.587Z,16.40
2018-11-29T18:39:54.761Z,18.57
2018-11-29T18:42:07.031Z,18.50
2018-11-29T18:44:19.224Z,18.67
2018-11-29T18:46:31.437Z,18.03
2018-11-29T18:48:43.767Z,19.83
2018-11-29T18:50:55.980Z,18.93
2018-11-29T18:53:08.287Z,18.73
2018-11-29T18:55:21.796Z,17.93
2018-11-29T18:57:34.024Z,17.20
2018-11-29T18:59:46.336Z,14.93
2018-11-29T19:01:58.615Z,19.63
2018-11-29T19:04:10.817Z,19.30
2018-11-29T19:06:23.018Z,21.93
2018-11-29T19:08:35.261Z,21.20
2018-11-29T19:10:47.549Z,18.17
2018-11-29T19:13:03.291Z,18.13
2018-11-29T19:15:15.545Z,19.77
2018-11-29T19:17:27.802Z,20.93
2018-11-29T19:19:40.068Z,17.27
2018-11-29T19:21:52.265Z,19.00
2018-11-29T19:24:05.137Z,20.70
2018-11-29T19:26:17.421Z,19.70
2018-11-29T19:28:29.602Z,18.10
2018-11-29T19:30:41.913Z,17.73
2018-11-29T19:32:57.636Z,18.03
2018-11-29T19:35:10.638Z,17.93
2018-11-29T19:37:22.912Z,21.27
2018-11-29T19:39:35.258Z,22.50
2018-11-29T19:41:47.509Z,20.63
2018-11-29T19:43:59.837Z,19.30
2018-11-29T19:46:12.083Z,20.87
2018-11-29T19:48:24.323Z,22.30
2018-11-29T19:50:36.593Z,18.27
2018-11-29T19:52:50.397Z,18.53
2018-11-29T19:55:02.612Z,20.80
2018-11-29T19:57:14.979Z,20.40
2018-11-29T19:59:27.228Z,22.03
2018-11-29T20:01:39.535Z,21.50
2018-11-29T20:03:51.896Z,20.47
2018-11-29T20:06:04.639Z,21.27
2018-11-29T20:08:16.883Z,22.73
2018-11-29T20:10:29.116Z,21.93
2018-11-29T20:12:41.374Z,22.07
2018-11-29T20:14:53.652Z,20.87
2018-11-29T20:17:05.925Z,22.20
2018-11-29T20:19:18.208Z,21.73
2018-11-29T20:21:30.509Z,19.40
2018-11-29T20:23:42.734Z,20.87
2018-11-29T20:25:55.017Z,18.53
2018-11-29T20:28:07.373Z,20.77
2018-11-29T20:30:20.606Z,18.97
2018-11-29T20:32:32.890Z,22.90
2018-11-29T20:34:45.179Z,23.17
2018-11-29T20:36:57.378Z,20.63
2018-11-29T20:39:09.959Z,22.33
2018-11-29T20:41:22.170Z,23.07
2018-11-29T20:43:34.501Z,18.77
2018-11-29T20:45:49.290Z,20.43
2018-11-29T20:48:04.643Z,22.97
2018-11-29T20:50:18.507Z,20.87
2018-11-29T20:52:30.788Z,20.00
2018-11-29T20:54:43.025Z,20.00
2018-11-29T20:56:55.318Z,22.73
2018-11-29T20:59:07.592Z,21.83
2018-11-29T21:01:19.829Z,20.33
2018-11-29T21:03:32.873Z,19.67
2018-11-29T21:05:44.389Z,19.33
2018-11-29T21:07:58.170Z,22.03
2018-11-29T21:10:13.207Z,21.30
2018-11-29T21:12:25.418Z,18.30
2018-11-29T21:14:37.667Z,17.77
2018-11-29T21:16:49.913Z,20.83
2018-11-29T21:19:02.180Z,20.40
2018-11-29T21:21:14.451Z,18.93
2018-11-29T21:23:26.690Z,19.87
2018-11-29T21:25:38.913Z,19.10
2018-11-29T21:27:51.137Z,17.67
2018-11-29T21:30:05.003Z,19.80
2018-11-29T21:32:17.212Z,18.87
2018-11-29T21:34:29.413Z,17.77
2018-11-29T21:36:41.754Z,19.40
2018-11-29T21:38:53.966Z,18.50
2018-11-29T21:41:06.244Z,19.47
2018-11-29T21:43:18.467Z,19.10
2018-11-29T21:45:30.704Z,18.07
2018-11-29T21:47:42.933Z,19.57
2018-11-29T21:49:55.135Z,20.03
2018-11-29T21:52:07.364Z,20.50
2018-11-29T21:54:19.592Z,20.63
2018-11-29T21:56:31.836Z,21.10
2018-11-29T21:58:44.044Z,22.10
2018-11-29T22:00:56.461Z,18.60
2018-11-29T22:03:08.680Z,19.37
2018-11-29T22:05:20.962Z,19.97
2018-11-29T22:07:33.189Z,18.77
2018-11-29T22:09:45.393Z,17.40
2018-11-29T22:11:57.656Z,18.10
2018-11-29T22:14:09.822Z,18.17
2018-11-29T22:16:22.149Z,21.20
2018-11-29T22:18:34.404Z,21.17
2018-11-29T22:20:47.712Z,19.30
2018-11-29T22:22:59.936Z,18.33
2018-11-29T22:25:12.224Z,17.43
2018-11-29T22:27:24.499Z,17.20
2018-11-29T22:29:36.729Z,18.20
2018-11-29T22:31:48.985Z,18.63
2018-11-29T22:34:01.175Z,18.27
2018-11-29T22:36:14.260Z,17.87
2018-11-29T22:38:25.596Z,18.27
2018-11-29T22:40:37.816Z,17.67
2018-11-29T22:42:50.104Z,21.33
2018-11-29T22:45:02.344Z,23.47
2018-11-29T22:47:14.553Z,18.07
2018-11-29T22:49:26.773Z,19.17
2018-11-29T22:51:39.013Z,21.20
2018-11-29T22:53:51.217Z,20.53
2018-11-29T22:56:03.494Z,17.30
2018-11-29T22:58:15.688Z,17.80
2018-11-29T23:00:33.687Z,19.30
2018-11-29T23:02:46.786Z,19.93
2018-11-29T23:04:59.182Z,16.63
2018-11-29T23:07:11.297Z,20.07
2018-11-29T23:09:23.528Z,19.10
2018-11-29T23:11:35.972Z,18.43
2018-11-29T23:13:49.905Z,19.63
2018-11-29T23:16:02.189Z,20.83
2018-11-29T23:18:14.382Z,19.67
2018-11-29T23:20:26.705Z,22.00
2018-11-29T23:22:39.494Z,17.27
2018-11-29T23:24:51.706Z,18.37
2018-11-29T23:27:03.919Z,19.80
2018-11-29T23:29:16.093Z,19.90
2018-11-29T23:31:28.312Z,18.63
2018-11-29T23:33:40.509Z,20.57
2018-11-29T23:35:52.685Z,19.73
2018-11-29T23:38:05.052Z,18.97
2018-11-29T23:40:17.538Z,21.33
2018-11-29T23:42:29.706Z,20.30
2018-11-29T23:44:41.855Z,16.57
2018-11-29T23:46:54.039Z,16.37
2018-11-29T23:49:06.357Z,16.70
2018-11-29T23:51:18.571Z,17.47
2018-11-29T23:53:30.823Z,18.73
2018-11-29T23:55:43.031Z,18.90
2018-11-29T23:57:55.281Z,19.30
